sensor_id;sensor_type;location;lat;lon;timestamp;P1;durP1;ratioP1;P2;durP2;ratioP2
21402;SDS011;10862;51.886;17.078;2024-03-29T15:22:50;67.25;;;35.60;;
21402;SDS011;10862;51.886;17.078;2024-03-29T15:25:16;47.00;;;30.65;;
21402;SDS011;10862;51.886;17.078;2024-03-29T15:27:43;73.72;;;40.45;;
21402;SDS011;10862;51.886;17.078;2024-03-29T15:30:27;69.35;;;38.80;;
21402;SDS011;10862;51.886;17.078;2024-03-29T15:32:53;84.53;;;50.15;;
21402;SDS011;10862;51.886;17.078;2024-03-29T15:35:20;91.88;;;44.75;;
21402;SDS011;10862;51.886;17.078;2024-03-29T15:37:46;34.83;;;29.88;;
21402;SDS011;10862;51.886;17.078;2024-03-29T15:40:12;48.55;;;33.25;;
21402;SDS011;10862;51.886;17.078;2024-03-29T15:42:38;53.15;;;35.88;;
21402;SDS011;10862;51.886;17.078;2024-03-29T15:45:05;74.50;;;40.88;;
21402;SDS011;10862;51.886;17.078;2024-03-29T15:47:32;97.43;;;49.80;;
21402;SDS011;10862;51.886;17.078;2024-03-29T15:49:59;69.22;;;40.25;;
21402;SDS011;10862;51.886;17.078;2024-03-29T15:52:24;88.77;;;49.47;;
21402;SDS011;10862;51.886;17.078;2024-03-29T15:54:50;151.02;;;72.40;;
21402;SDS011;10862;51.886;17.078;2024-03-29T15:57:19;84.93;;;47.65;;
21402;SDS011;10862;51.886;17.078;2024-03-29T15:59:44;71.38;;;42.65;;
21402;SDS011;10862;51.886;17.078;2024-03-29T16:02:13;73.25;;;48.00;;
21402;SDS011;10862;51.886;17.078;2024-03-29T16:04:39;95.63;;;51.60;;
21402;SDS011;10862;51.886;17.078;2024-03-29T16:07:05;134.10;;;68.03;;
21402;SDS011;10862;51.886;17.078;2024-03-29T16:09:31;146.95;;;79.25;;
21402;SDS011;10862;51.886;17.078;2024-03-29T16:11:56;71.78;;;45.08;;
21402;SDS011;10862;51.886;17.078;2024-03-29T16:14:22;165.75;;;79.22;;
21402;SDS011;10862;51.886;17.078;2024-03-29T16:16:50;188.52;;;79.30;;
21402;SDS011;10862;51.886;17.078;2024-03-29T16:19:16;117.93;;;59.60;;
21402;SDS011;10862;51.886;17.078;2024-03-29T16:21:42;131.82;;;67.80;;
21402;SDS011;10862;51.886;17.078;2024-03-29T16:24:07;92.60;;;50.50;;
21402;SDS011;10862;51.886;17.078;2024-03-29T16:26:33;89.60;;;49.63;;
21402;SDS011;10862;51.886;17.078;2024-03-29T16:28:59;107.63;;;54.85;;
21402;SDS011;10862;51.886;17.078;2024-03-29T16:31:31;80.35;;;39.33;;
21402;SDS011;10862;51.886;17.078;2024-03-29T16:33:57;124.28;;;51.47;;
21402;SDS011;10862;51.886;17.078;2024-03-29T16:36:23;81.03;;;50.10;;
21402;SDS011;10862;51.886;17.078;2024-03-29T16:38:48;81.13;;;52.40;;
21402;SDS011;10862;51.886;17.078;2024-03-29T16:41:15;95.45;;;46.10;;
21402;SDS011;10862;51.886;17.078;2024-03-29T16:43:40;101.83;;;39.03;;
21402;SDS011;10862;51.886;17.078;2024-03-29T16:46:06;79.87;;;38.00;;
21402;SDS011;10862;51.886;17.078;2024-03-29T16:48:32;53.20;;;32.20;;
21402;SDS011;10862;51.886;17.078;2024-03-29T16:50:58;64.00;;;35.10;;
21402;SDS011;10862;51.886;17.078;2024-03-29T16:53:23;59.03;;;32.60;;
21402;SDS011;10862;51.886;17.078;2024-03-29T16:55:49;79.17;;;39.77;;
21402;SDS011;10862;51.886;17.078;2024-03-29T16:58:15;61.97;;;31.80;;
21402;SDS011;10862;51.886;17.078;2024-03-29T17:00:41;49.73;;;28.70;;
21402;SDS011;10862;51.886;17.078;2024-03-29T17:03:07;55.73;;;30.13;;
21402;SDS011;10862;51.886;17.078;2024-03-29T17:05:34;42.87;;;25.50;;
21402;SDS011;10862;51.886;17.078;2024-03-29T17:07:59;36.73;;;26.83;;
21402;SDS011;10862;51.886;17.078;2024-03-29T17:10:25;48.93;;;26.77;;
21402;SDS011;10862;51.886;17.078;2024-03-29T17:12:51;50.33;;;27.53;;
21402;SDS011;10862;51.886;17.078;2024-03-29T17:15:19;58.67;;;30.27;;
21402;SDS011;10862;51.886;17.078;2024-03-29T17:17:45;48.00;;;26.13;;
21402;SDS011;10862;51.886;17.078;2024-03-29T17:20:10;77.03;;;42.80;;
21402;SDS011;10862;51.886;17.078;2024-03-29T17:22:36;99.67;;;50.47;;
21402;SDS011;10862;51.886;17.078;2024-03-29T17:25:05;131.27;;;59.83;;
21402;SDS011;10862;51.886;17.078;2024-03-29T17:27:34;148.87;;;64.53;;
21402;SDS011;10862;51.886;17.078;2024-03-29T17:30:02;243.57;;;119.97;;
21402;SDS011;10862;51.886;17.078;2024-03-29T17:32:28;273.10;;;131.97;;
21402;SDS011;10862;51.886;17.078;2024-03-29T17:34:54;200.37;;;78.40;;
21402;SDS011;10862;51.886;17.078;2024-03-29T17:37:20;492.13;;;166.33;;
21402;SDS011;10862;51.886;17.078;2024-03-29T17:39:46;421.70;;;139.60;;
21402;SDS011;10862;51.886;17.078;2024-03-29T17:42:11;136.40;;;56.63;;
21402;SDS011;10862;51.886;17.078;2024-03-29T17:44:37;124.00;;;56.07;;
21402;SDS011;10862;51.886;17.078;2024-03-29T17:47:03;88.17;;;41.73;;
21402;SDS011;10862;51.886;17.078;2024-03-29T17:49:29;83.17;;;43.10;;
21402;SDS011;10862;51.886;17.078;2024-03-29T17:51:54;66.97;;;37.63;;
21402;SDS011;10862;51.886;17.078;2024-03-29T17:54:20;99.90;;;45.97;;
21402;SDS011;10862;51.886;17.078;2024-03-29T17:56:47;56.77;;;33.37;;
21402;SDS011;10862;51.886;17.078;2024-03-29T17:59:13;70.97;;;39.30;;
21402;SDS011;10862;51.886;17.078;2024-03-29T18:01:40;72.27;;;46.83;;
21402;SDS011;10862;51.886;17.078;2024-03-29T18:04:22;53.97;;;36.67;;
21402;SDS011;10862;51.886;17.078;2024-03-29T18:06:51;34.63;;;24.90;;
21402;SDS011;10862;51.886;17.078;2024-03-29T18:09:17;72.03;;;42.90;;
21402;SDS011;10862;51.886;17.078;2024-03-29T18:11:42;43.60;;;29.77;;
21402;SDS011;10862;51.886;17.078;2024-03-29T18:14:08;47.33;;;30.83;;
21402;SDS011;10862;51.886;17.078;2024-03-29T18:16:34;51.00;;;30.07;;
21402;SDS011;10862;51.886;17.078;2024-03-29T18:19:00;54.03;;;34.43;;
21402;SDS011;10862;51.886;17.078;2024-03-29T18:21:26;126.73;;;58.37;;
21402;SDS011;10862;51.886;17.078;2024-03-29T18:23:52;64.30;;;33.10;;
21402;SDS011;10862;51.886;17.078;2024-03-29T18:26:17;50.17;;;28.17;;
21402;SDS011;10862;51.886;17.078;2024-03-29T18:28:43;59.13;;;29.67;;
21402;SDS011;10862;51.886;17.078;2024-03-29T18:31:09;71.37;;;40.63;;
21402;SDS011;10862;51.886;17.078;2024-03-29T18:33:37;68.13;;;41.80;;
21402;SDS011;10862;51.886;17.078;2024-03-29T18:36:06;97.57;;;54.87;;
21402;SDS011;10862;51.886;17.078;2024-03-29T18:38:32;114.63;;;48.23;;
21402;SDS011;10862;51.886;17.078;2024-03-29T18:41:06;61.20;;;32.47;;
21402;SDS011;10862;51.886;17.078;2024-03-29T18:43:32;70.53;;;34.57;;
21402;SDS011;10862;51.886;17.078;2024-03-29T18:46:02;71.97;;;39.60;;
21402;SDS011;10862;51.886;17.078;2024-03-29T18:48:28;58.23;;;32.13;;
21402;SDS011;10862;51.886;17.078;2024-03-29T18:50:54;59.53;;;30.77;;
21402;SDS011;10862;51.886;17.078;2024-03-29T18:53:20;48.70;;;29.87;;
21402;SDS011;10862;51.886;17.078;2024-03-29T18:55:55;51.67;;;30.90;;
21402;SDS011;10862;51.886;17.078;2024-03-29T18:58:20;51.43;;;28.23;;
21402;SDS011;10862;51.886;17.078;2024-03-29T19:00:46;36.37;;;24.40;;
21402;SDS011;10862;51.886;17.078;2024-03-29T19:03:12;45.50;;;27.30;;
21402;SDS011;10862;51.886;17.078;2024-03-29T19:05:37;68.57;;;32.97;;
21402;SDS011;10862;51.886;17.078;2024-03-29T19:08:03;48.27;;;30.27;;
21402;SDS011;10862;51.886;17.078;2024-03-29T19:10:29;49.33;;;28.80;;
21402;SDS011;10862;51.886;17.078;2024-03-29T19:12:54;41.97;;;26.77;;
21402;SDS011;10862;51.886;17.078;2024-03-29T19:15:21;37.83;;;25.70;;
21402;SDS011;10862;51.886;17.078;2024-03-29T19:17:47;36.27;;;25.47;;
21402;SDS011;10862;51.886;17.078;2024-03-29T19:20:12;33.33;;;24.03;;
21402;SDS011;10862;51.886;17.078;2024-03-29T19:22:38;25.33;;;21.00;;
21402;SDS011;10862;51.886;17.078;2024-03-29T19:25:04;26.80;;;19.33;;
21402;SDS011;10862;51.886;17.078;2024-03-29T19:27:30;23.30;;;19.83;;
21402;SDS011;10862;51.886;17.078;2024-03-29T19:29:56;22.90;;;20.33;;
21402;SDS011;10862;51.886;17.078;2024-03-29T19:32:26;22.37;;;17.90;;
21402;SDS011;10862;51.886;17.078;2024-03-29T19:34:52;21.50;;;19.30;;
21402;SDS011;10862;51.886;17.078;2024-03-29T19:37:18;19.93;;;17.87;;
21402;SDS011;10862;51.886;17.078;2024-03-29T19:39:44;21.10;;;19.03;;
21402;SDS011;10862;51.886;17.078;2024-03-29T19:42:09;22.50;;;20.27;;
21402;SDS011;10862;51.886;17.078;2024-03-29T19:44:35;42.90;;;31.37;;
21402;SDS011;10862;51.886;17.078;2024-03-29T19:47:01;55.20;;;27.93;;
21402;SDS011;10862;51.886;17.078;2024-03-29T19:49:27;36.67;;;22.90;;
21402;SDS011;10862;51.886;17.078;2024-03-29T19:51:52;24.53;;;20.00;;
21402;SDS011;10862;51.886;17.078;2024-03-29T19:54:18;29.23;;;19.17;;
21402;SDS011;10862;51.886;17.078;2024-03-29T19:56:44;23.97;;;17.93;;
21402;SDS011;10862;51.886;17.078;2024-03-29T19:59:09;31.77;;;20.80;;
21402;SDS011;10862;51.886;17.078;2024-03-29T20:01:35;24.30;;;18.53;;
21402;SDS011;10862;51.886;17.078;2024-03-29T20:04:01;21.50;;;18.03;;
21402;SDS011;10862;51.886;17.078;2024-03-29T20:06:27;21.23;;;17.67;;
21402;SDS011;10862;51.886;17.078;2024-03-29T20:08:52;19.27;;;16.83;;
21402;SDS011;10862;51.886;17.078;2024-03-29T20:11:19;16.40;;;13.83;;
21402;SDS011;10862;51.886;17.078;2024-03-29T20:13:45;27.90;;;16.73;;
21402;SDS011;10862;51.886;17.078;2024-03-29T20:16:11;24.70;;;18.73;;
21402;SDS011;10862;51.886;17.078;2024-03-29T20:18:36;18.83;;;16.07;;
21402;SDS011;10862;51.886;17.078;2024-03-29T20:21:02;22.77;;;17.23;;
21402;SDS011;10862;51.886;17.078;2024-03-29T20:23:29;21.73;;;15.23;;
21402;SDS011;10862;51.886;17.078;2024-03-29T20:25:55;19.57;;;16.30;;
21402;SDS011;10862;51.886;17.078;2024-03-29T20:28:20;19.73;;;16.93;;
21402;SDS011;10862;51.886;17.078;2024-03-29T20:30:50;19.17;;;16.63;;
21402;SDS011;10862;51.886;17.078;2024-03-29T20:33:16;22.30;;;17.30;;
21402;SDS011;10862;51.886;17.078;2024-03-29T20:35:42;21.17;;;17.13;;
21402;SDS011;10862;51.886;17.078;2024-03-29T20:38:08;17.60;;;16.00;;
21402;SDS011;10862;51.886;17.078;2024-03-29T20:40:34;25.83;;;17.47;;
21402;SDS011;10862;51.886;17.078;2024-03-29T20:43:01;17.90;;;16.10;;
21402;SDS011;10862;51.886;17.078;2024-03-29T20:45:28;18.53;;;16.57;;
21402;SDS011;10862;51.886;17.078;2024-03-29T20:47:54;15.23;;;13.30;;
21402;SDS011;10862;51.886;17.078;2024-03-29T20:50:20;16.57;;;15.00;;
21402;SDS011;10862;51.886;17.078;2024-03-29T20:52:50;15.73;;;14.13;;
21402;SDS011;10862;51.886;17.078;2024-03-29T20:55:22;17.07;;;15.47;;
21402;SDS011;10862;51.886;17.078;2024-03-29T20:57:49;16.03;;;14.53;;
21402;SDS011;10862;51.886;17.078;2024-03-29T21:00:15;21.20;;;16.07;;
21402;SDS011;10862;51.886;17.078;2024-03-29T21:02:41;16.23;;;14.57;;
21402;SDS011;10862;51.886;17.078;2024-03-29T21:05:25;17.23;;;15.63;;
21402;SDS011;10862;51.886;17.078;2024-03-29T21:07:59;19.53;;;17.73;;
21402;SDS011;10862;51.886;17.078;2024-03-29T21:10:26;21.10;;;18.20;;
21402;SDS011;10862;51.886;17.078;2024-03-29T21:12:53;18.73;;;16.83;;
21402;SDS011;10862;51.886;17.078;2024-03-29T21:15:19;19.47;;;15.73;;
21402;SDS011;10862;51.886;17.078;2024-03-29T21:17:46;16.07;;;13.90;;
21402;SDS011;10862;51.886;17.078;2024-03-29T21:20:12;15.43;;;13.97;;
21402;SDS011;10862;51.886;17.078;2024-03-29T21:22:41;15.67;;;14.20;;
21402;SDS011;10862;51.886;17.078;2024-03-29T21:25:08;16.70;;;15.20;;
21402;SDS011;10862;51.886;17.078;2024-03-29T21:27:36;15.43;;;13.80;;
21402;SDS011;10862;51.886;17.078;2024-03-29T21:30:03;15.53;;;14.03;;
21402;SDS011;10862;51.886;17.078;2024-03-29T21:32:33;17.37;;;14.30;;
21402;SDS011;10862;51.886;17.078;2024-03-29T21:35:00;16.93;;;15.13;;
21402;SDS011;10862;51.886;17.078;2024-03-29T21:37:27;15.43;;;13.77;;
21402;SDS011;10862;51.886;17.078;2024-03-29T21:39:53;14.63;;;13.33;;
21402;SDS011;10862;51.886;17.078;2024-03-29T21:42:18;14.80;;;13.40;;
21402;SDS011;10862;51.886;17.078;2024-03-29T21:44:46;14.90;;;13.70;;
21402;SDS011;10862;51.886;17.078;2024-03-29T21:47:12;16.43;;;15.03;;
21402;SDS011;10862;51.886;17.078;2024-03-29T21:49:38;17.03;;;15.63;;
21402;SDS011;10862;51.886;17.078;2024-03-29T21:52:04;18.57;;;16.77;;
21402;SDS011;10862;51.886;17.078;2024-03-29T21:54:30;18.90;;;17.17;;
21402;SDS011;10862;51.886;17.078;2024-03-29T21:56:56;18.57;;;17.07;;
21402;SDS011;10862;51.886;17.078;2024-03-29T21:59:24;18.53;;;16.93;;
21402;SDS011;10862;51.886;17.078;2024-03-29T22:01:53;18.40;;;16.77;;
21402;SDS011;10862;51.886;17.078;2024-03-29T22:04:18;18.77;;;17.17;;
21402;SDS011;10862;51.886;17.078;2024-03-29T22:06:44;19.40;;;17.57;;
21402;SDS011;10862;51.886;17.078;2024-03-29T22:09:10;19.63;;;17.93;;
21402;SDS011;10862;51.886;17.078;2024-03-29T22:11:36;19.33;;;17.50;;
21402;SDS011;10862;51.886;17.078;2024-03-29T22:14:02;19.43;;;17.70;;
21402;SDS011;10862;51.886;17.078;2024-03-29T22:16:29;20.10;;;18.13;;
21402;SDS011;10862;51.886;17.078;2024-03-29T22:18:55;18.73;;;17.03;;
21402;SDS011;10862;51.886;17.078;2024-03-29T22:21:21;19.67;;;17.37;;
21402;SDS011;10862;51.886;17.078;2024-03-29T22:23:46;20.17;;;18.27;;
21402;SDS011;10862;51.886;17.078;2024-03-29T22:26:12;22.20;;;20.07;;
21402;SDS011;10862;51.886;17.078;2024-03-29T22:28:38;20.93;;;18.93;;
21402;SDS011;10862;51.886;17.078;2024-03-29T22:31:04;18.97;;;17.33;;
21402;SDS011;10862;51.886;17.078;2024-03-29T22:33:32;20.83;;;18.90;;
21402;SDS011;10862;51.886;17.078;2024-03-29T22:35:58;20.53;;;18.73;;
21402;SDS011;10862;51.886;17.078;2024-03-29T22:38:24;18.57;;;17.03;;
21402;SDS011;10862;51.886;17.078;2024-03-29T22:40:51;17.90;;;16.30;;
21402;SDS011;10862;51.886;17.078;2024-03-29T22:43:19;19.00;;;17.43;;
21402;SDS011;10862;51.886;17.078;2024-03-29T22:45:45;18.63;;;17.03;;
21402;SDS011;10862;51.886;17.078;2024-03-29T22:48:10;18.63;;;16.57;;
21402;SDS011;10862;51.886;17.078;2024-03-29T22:50:36;18.23;;;16.37;;
21402;SDS011;10862;51.886;17.078;2024-03-29T22:53:03;18.80;;;17.00;;
21402;SDS011;10862;51.886;17.078;2024-03-29T22:55:32;17.67;;;15.93;;
21402;SDS011;10862;51.886;17.078;2024-03-29T22:57:59;17.63;;;15.83;;
21402;SDS011;10862;51.886;17.078;2024-03-29T23:00:25;18.20;;;16.37;;
21402;SDS011;10862;51.886;17.078;2024-03-29T23:02:51;18.43;;;16.17;;
21402;SDS011;10862;51.886;17.078;2024-03-29T23:05:17;17.67;;;14.50;;
21402;SDS011;10862;51.886;17.078;2024-03-29T23:07:42;16.63;;;15.03;;
21402;SDS011;10862;51.886;17.078;2024-03-29T23:10:10;16.40;;;14.97;;
21402;SDS011;10862;51.886;17.078;2024-03-29T23:12:36;17.30;;;15.70;;
21402;SDS011;10862;51.886;17.078;2024-03-29T23:15:01;19.47;;;16.07;;
21402;SDS011;10862;51.886;17.078;2024-03-29T23:17:27;18.73;;;14.93;;
21402;SDS011;10862;51.886;17.078;2024-03-29T23:19:54;15.60;;;14.10;;
21402;SDS011;10862;51.886;17.078;2024-03-29T23:22:20;16.17;;;14.27;;
21402;SDS011;10862;51.886;17.078;2024-03-29T23:24:45;16.50;;;15.07;;
21402;SDS011;10862;51.886;17.078;2024-03-29T23:27:12;16.97;;;15.33;;
21402;SDS011;10862;51.886;17.078;2024-03-29T23:29:38;16.43;;;15.00;;
21402;SDS011;10862;51.886;17.078;2024-03-29T23:32:05;17.03;;;15.07;;
21402;SDS011;10862;51.886;17.078;2024-03-29T23:34:32;14.93;;;13.73;;
21402;SDS011;10862;51.886;17.078;2024-03-29T23:36:59;14.40;;;13.30;;
21402;SDS011;10862;51.886;17.078;2024-03-29T23:39:28;14.90;;;13.73;;
21402;SDS011;10862;51.886;17.078;2024-03-29T23:41:54;17.00;;;14.63;;
21402;SDS011;10862;51.886;17.078;2024-03-29T23:44:20;16.47;;;14.80;;
21402;SDS011;10862;51.886;17.078;2024-03-29T23:46:46;20.37;;;15.63;;
21402;SDS011;10862;51.886;17.078;2024-03-29T23:49:12;17.60;;;15.07;;
21402;SDS011;10862;51.886;17.078;2024-03-29T23:51:37;15.70;;;14.20;;
21402;SDS011;10862;51.886;17.078;2024-03-29T23:54:03;17.53;;;15.67;;
21402;SDS011;10862;51.886;17.078;2024-03-29T23:56:29;18.20;;;14.93;;
21402;SDS011;10862;51.886;17.078;2024-03-29T23:58:57;19.03;;;15.43;;
